Time;durP1;ratioP1;P1;durP2;ratioP2;P2;SDS_P1;SDS_P2;PMS_P1;PMS_P2;Temp;Humidity;BMP_temperature;BMP_pressure;BME280_temperature;BME280_humidity;BME280_pressure;Samples;Min_cycle;Max_cycle;Signal;HPM_P1;HPM_P2
2021/01/10 00:00:01;;;;;;;24.77;20.67;;;3.40;99.90;;;;;;5063672;28;20639;-65
2021/01/10 00:02:27;;;;;;;23.17;19.60;;;3.40;99.90;;;;;;5064276;28;20442;-65
2021/01/10 00:04:53;;;;;;;21.43;19.13;;;3.40;99.90;;;;;;5063717;28;20862;-65
2021/01/10 00:07:25;;;;;;;25.03;19.90;;;3.40;99.90;;;;;;5065206;28;20457;-65
2021/01/10 00:09:51;;;;;;;25.67;20.10;;;3.40;99.90;;;;;;5066978;28;20430;-64
2021/01/10 00:12:22;;;;;;;21.50;19.20;;;3.40;99.90;;;;;;5064119;28;20449;-65
2021/01/10 00:14:47;;;;;;;24.03;19.73;;;3.50;99.90;;;;;;5063821;28;20516;-64
2021/01/10 00:17:13;;;;;;;23.83;18.83;;;3.50;99.90;;;;;;5064842;28;20473;-65
2021/01/10 00:19:38;;;;;;;26.23;20.00;;;3.50;99.90;;;;;;5066679;28;20571;-65
2021/01/10 00:22:04;;;;;;;21.70;19.40;;;3.50;99.90;;;;;;5065150;28;20549;-65
2021/01/10 00:24:29;;;;;;;23.30;19.67;;;3.50;99.90;;;;;;5063886;28;20652;-65
2021/01/10 00:26:55;;;;;;;24.67;19.40;;;3.50;99.90;;;;;;5063360;28;20203;-65
2021/01/10 00:29:20;;;;;;;25.80;18.80;;;3.50;99.90;;;;;;5067711;28;20669;-65
2021/01/10 00:31:46;;;;;;;23.90;18.27;;;3.50;99.90;;;;;;5066860;28;20192;-65
2021/01/10 00:34:11;;;;;;;21.30;18.23;;;3.50;99.90;;;;;;5067433;28;20668;-65
2021/01/10 00:36:37;;;;;;;21.93;17.70;;;3.50;99.90;;;;;;5068370;28;20191;-64
2021/01/10 00:39:04;;;;;;;20.03;17.20;;;3.50;99.90;;;;;;5068153;28;20699;-64
2021/01/10 00:41:39;;;;;;;17.37;15.33;;;3.50;99.90;;;;;;5063058;28;20227;-65
2021/01/10 00:44:05;;;;;;;20.73;16.60;;;3.50;99.90;;;;;;5069523;28;20531;-65
2021/01/10 00:46:34;;;;;;;20.17;16.67;;;3.40;99.90;;;;;;5069438;28;20430;-65
2021/01/10 00:49:00;;;;;;;18.10;15.77;;;3.40;99.90;;;;;;5064386;28;20444;-64
2021/01/10 00:51:26;;;;;;;19.63;16.10;;;3.40;99.90;;;;;;5066744;28;20843;-64
2021/01/10 00:53:51;;;;;;;16.53;14.80;;;3.40;99.90;;;;;;5068438;28;20465;-64
2021/01/10 00:56:17;;;;;;;18.40;16.37;;;3.30;99.90;;;;;;5070714;28;20188;-64
2021/01/10 00:58:43;;;;;;;17.73;16.07;;;3.30;99.90;;;;;;5067795;28;20653;-65
2021/01/10 01:01:08;;;;;;;20.67;16.07;;;3.30;99.90;;;;;;5068411;28;20223;-64
2021/01/10 01:03:34;;;;;;;19.93;16.97;;;3.40;99.90;;;;;;5037386;28;20228;-64
2021/01/10 01:05:59;;;;;;;18.97;17.00;;;3.30;99.90;;;;;;5070446;28;20543;-64
2021/01/10 01:08:25;;;;;;;19.47;17.20;;;3.30;99.90;;;;;;5069394;28;20217;-65
2021/01/10 01:10:50;;;;;;;17.57;15.80;;;3.30;99.90;;;;;;5066671;28;20272;-65
2021/01/10 01:13:16;;;;;;;18.13;16.23;;;3.30;99.90;;;;;;5069991;28;20761;-65
2021/01/10 01:15:42;;;;;;;22.03;18.23;;;3.30;99.90;;;;;;5068491;28;20444;-65
2021/01/10 01:18:08;;;;;;;27.13;19.90;;;3.30;99.90;;;;;;5066883;28;20446;-65
2021/01/10 01:20:34;;;;;;;25.77;19.70;;;3.30;99.90;;;;;;5064824;28;20651;-65
2021/01/10 01:23:03;;;;;;;23.67;19.70;;;3.30;99.90;;;;;;5066528;28;20993;-64
2021/01/10 01:25:29;;;;;;;29.63;22.10;;;3.30;99.90;;;;;;5043003;28;20442;-65
2021/01/10 01:27:55;;;;;;;30.33;21.37;;;3.30;99.90;;;;;;5065438;28;20869;-64
2021/01/10 01:30:21;;;;;;;28.10;21.50;;;3.30;99.90;;;;;;5065812;28;20439;-65
2021/01/10 01:32:47;;;;;;;33.17;22.83;;;3.30;99.90;;;;;;5068358;28;20525;-65
2021/01/10 01:35:12;;;;;;;39.20;25.63;;;3.30;99.90;;;;;;5062805;28;20511;-64
2021/01/10 01:37:38;;;;;;;38.80;23.23;;;3.20;99.90;;;;;;5068941;28;20192;-65
2021/01/10 01:40:05;;;;;;;38.23;27.67;;;3.20;99.90;;;;;;5066886;28;20245;-65
2021/01/10 01:42:31;;;;;;;37.27;24.63;;;3.30;99.90;;;;;;5065695;28;20628;-65
2021/01/10 01:44:56;;;;;;;40.60;26.97;;;3.20;99.90;;;;;;5069745;28;20445;-65
2021/01/10 01:47:22;;;;;;;42.67;26.70;;;3.20;99.90;;;;;;5062364;28;20246;-65
2021/01/10 01:49:48;;;;;;;42.40;27.57;;;3.20;99.90;;;;;;5068245;28;20195;-64
2021/01/10 01:52:14;;;;;;;47.17;27.37;;;3.20;99.90;;;;;;5061728;28;20187;-64
2021/01/10 01:54:39;;;;;;;46.40;27.07;;;3.20;99.90;;;;;;5067582;28;20500;-65
2021/01/10 01:57:05;;;;;;;37.20;26.87;;;3.20;99.90;;;;;;5065478;28;20204;-65
2021/01/10 01:59:31;;;;;;;41.80;25.13;;;3.20;99.90;;;;;;5065962;28;20192;-65
2021/01/10 02:01:56;;;;;;;41.20;27.93;;;3.20;99.90;;;;;;5068511;28;20195;-65
2021/01/10 02:04:28;;;;;;;53.57;29.57;;;3.20;99.90;;;;;;5063343;28;20191;-64
2021/01/10 02:07:24;;;;;;;46.00;28.17;;;3.20;99.90;;;;;;5065185;28;20225;-64
2021/01/10 02:10:02;;;;;;;45.43;27.47;;;3.20;99.90;;;;;;5064640;28;20438;-65
2021/01/10 02:12:30;;;;;;;42.80;29.50;;;3.20;99.90;;;;;;5063170;28;20583;-65
2021/01/10 02:14:58;;;;;;;43.50;27.87;;;3.20;99.90;;;;;;5063215;28;20473;-64
2021/01/10 02:17:26;;;;;;;45.67;28.03;;;3.20;99.90;;;;;;5059923;28;20442;-65
2021/01/10 02:20:13;;;;;;;46.77;28.87;;;3.20;99.90;;;;;;5069988;28;20790;-64
2021/01/10 02:23:00;;;;;;;50.57;32.10;;;3.20;99.90;;;;;;5064810;28;20461;-64
2021/01/10 02:25:26;;;;;;;48.70;30.27;;;3.20;99.90;;;;;;5063239;28;20434;-64
2021/01/10 02:27:52;;;;;;;46.53;29.27;;;3.20;99.90;;;;;;5063014;28;20824;-64
2021/01/10 02:30:20;;;;;;;49.07;29.83;;;3.20;99.90;;;;;;5064314;28;20206;-65
2021/01/10 02:32:50;;;;;;;45.47;29.20;;;3.20;99.90;;;;;;5066905;28;21021;-64
2021/01/10 02:35:16;;;;;;;44.77;30.10;;;3.30;99.90;;;;;;5040057;28;20458;-65
2021/01/10 02:38:03;;;;;;;54.37;30.70;;;3.30;99.90;;;;;;5063512;28;20434;-64
2021/01/10 02:40:39;;;;;;;49.07;30.60;;;3.30;99.90;;;;;;5063635;28;20544;-65
2021/01/10 02:43:20;;;;;;;46.63;29.70;;;3.30;99.90;;;;;;5057606;28;20460;-66
2021/01/10 02:45:48;;;;;;;46.03;28.90;;;3.30;99.90;;;;;;5059968;28;20446;-65
2021/01/10 02:48:14;;;;;;;50.00;32.23;;;3.30;99.90;;;;;;5064823;28;20524;-65
2021/01/10 02:50:40;;;;;;;54.43;29.73;;;3.30;99.90;;;;;;5065636;28;20839;-65
2021/01/10 02:53:06;;;;;;;48.87;29.67;;;3.30;99.90;;;;;;5065152;28;20249;-65
2021/01/10 02:55:31;;;;;;;48.47;29.63;;;3.30;99.90;;;;;;5063891;28;20437;-65
2021/01/10 02:58:25;;;;;;;48.03;28.40;;;3.30;99.90;;;;;;5065455;28;20589;-65
2021/01/10 03:00:52;;;;;;;53.40;31.37;;;3.30;99.90;;;;;;5061496;28;20916;-65
2021/01/10 03:03:19;;;;;;;50.50;31.00;;;3.30;99.90;;;;;;5064213;28;20437;-65
2021/01/10 03:05:47;;;;;;;54.70;30.77;;;3.30;99.90;;;;;;5061555;28;20453;-66
2021/01/10 03:08:13;;;;;;;51.77;32.60;;;3.30;99.90;;;;;;5067697;28;21010;-66
2021/01/10 03:10:39;;;;;;;44.97;31.03;;;3.30;99.90;;;;;;5065483;28;20429;-66
2021/01/10 03:13:05;;;;;;;51.80;28.67;;;3.20;99.90;;;;;;5063690;28;20449;-66
2021/01/10 03:15:32;;;;;;;53.60;30.93;;;3.20;99.90;;;;;;5066909;28;20441;-65
2021/01/10 03:18:14;;;;;;;52.93;30.77;;;3.20;99.90;;;;;;5063688;28;20434;-65
2021/01/10 03:20:39;;;;;;;44.57;29.13;;;3.20;99.90;;;;;;5063639;28;21029;-66
2021/01/10 03:23:05;;;;;;;50.17;29.97;;;3.30;99.90;;;;;;5068154;28;20528;-65
2021/01/10 03:25:31;;;;;;;49.57;30.80;;;3.20;99.90;;;;;;5063502;28;20544;-65
2021/01/10 03:27:56;;;;;;;46.63;30.13;;;3.20;99.90;;;;;;5064499;28;20195;-66
2021/01/10 03:30:22;;;;;;;43.87;30.87;;;3.20;99.90;;;;;;5045109;28;20180;-65
2021/01/10 03:32:47;;;;;;;51.87;28.70;;;3.20;99.90;;;;;;5064611;28;20183;-66
2021/01/10 03:35:15;;;;;;;44.87;29.87;;;3.20;99.90;;;;;;5063539;28;20214;-66
2021/01/10 03:37:41;;;;;;;50.00;28.07;;;3.20;99.90;;;;;;5063089;28;20546;-65
2021/01/10 03:40:07;;;;;;;44.33;28.97;;;3.20;99.90;;;;;;5065027;28;20458;-65
2021/01/10 03:42:33;;;;;;;55.37;31.13;;;3.30;99.90;;;;;;5066291;28;20187;-65
2021/01/10 03:44:59;;;;;;;45.70;28.40;;;3.30;99.90;;;;;;5064463;28;20468;-65
2021/01/10 03:47:24;;;;;;;45.07;32.70;;;3.30;99.90;;;;;;5066091;28;20433;-65
2021/01/10 03:49:50;;;;;;;53.83;30.33;;;3.30;99.90;;;;;;5067382;28;20187;-65
2021/01/10 03:52:15;;;;;;;44.33;29.40;;;3.30;99.90;;;;;;5059106;28;20176;-65
2021/01/10 03:54:41;;;;;;;51.40;30.77;;;3.30;99.90;;;;;;5059730;28;20259;-65
2021/01/10 03:57:07;;;;;;;46.27;31.00;;;3.30;99.90;;;;;;5064811;28;20286;-65
2021/01/10 03:59:32;;;;;;;51.80;31.37;;;3.30;99.90;;;;;;5066757;28;20187;-65
2021/01/10 04:01:58;;;;;;;53.13;29.00;;;3.30;99.90;;;;;;5046475;28;20774;-65
2021/01/10 04:04:23;;;;;;;53.53;31.30;;;3.30;99.90;;;;;;5066339;28;20191;-65
2021/01/10 04:06:49;;;;;;;54.17;31.47;;;3.30;99.90;;;;;;5068975;28;20187;-65
2021/01/10 04:09:14;;;;;;;46.50;29.97;;;3.30;99.90;;;;;;5070713;28;20253;-65
2021/01/10 04:11:40;;;;;;;50.87;32.10;;;3.30;99.90;;;;;;5073716;28;20218;-65
2021/01/10 04:14:05;;;;;;;52.60;31.23;;;3.30;99.90;;;;;;5070184;28;20281;-65
2021/01/10 04:16:31;;;;;;;52.43;32.03;;;3.30;99.90;;;;;;5024281;28;20192;-65
2021/01/10 04:18:57;;;;;;;50.93;31.00;;;3.30;99.90;;;;;;5069804;28;20197;-65
2021/01/10 04:21:22;;;;;;;54.63;31.17;;;3.30;99.90;;;;;;5069549;28;20266;-65
2021/01/10 04:23:47;;;;;;;47.13;31.50;;;3.30;99.90;;;;;;5073766;28;20609;-65
2021/01/10 04:26:13;;;;;;;50.03;28.63;;;3.30;99.90;;;;;;5068722;28;20192;-65
2021/01/10 04:28:39;;;;;;;50.87;30.03;;;3.30;99.90;;;;;;5068837;28;20205;-65
2021/01/10 04:31:04;;;;;;;45.97;30.00;;;3.30;99.90;;;;;;5069548;28;20496;-65
2021/01/10 04:33:30;;;;;;;45.10;29.83;;;3.30;99.90;;;;;;5073221;28;20211;-65
2021/01/10 04:35:55;;;;;;;49.67;29.17;;;3.30;99.90;;;;;;5067961;28;20664;-65
2021/01/10 04:38:21;;;;;;;45.90;29.87;;;3.30;99.90;;;;;;5071671;28;20187;-65
2021/01/10 04:40:47;;;;;;;52.13;31.40;;;3.30;99.90;;;;;;5042599;28;20184;-65
2021/01/10 04:43:13;;;;;;;47.93;31.27;;;3.30;99.90;;;;;;5063671;28;20187;-65
2021/01/10 04:45:40;;;;;;;45.93;28.43;;;3.40;99.90;;;;;;5069183;28;20974;-65
2021/01/10 04:48:07;;;;;;;49.30;29.93;;;3.40;99.90;;;;;;5064983;28;20434;-65
2021/01/10 04:50:34;;;;;;;48.33;29.30;;;3.40;99.90;;;;;;5066222;28;20475;-65
2021/01/10 04:53:03;;;;;;;43.10;26.40;;;3.40;99.90;;;;;;5071885;28;20930;-65
2021/01/10 04:55:32;;;;;;;44.50;29.40;;;3.40;99.90;;;;;;5069596;28;20841;-65
2021/01/10 04:58:07;;;;;;;43.13;28.10;;;3.40;99.90;;;;;;5070110;28;20938;-65
2021/01/10 05:00:35;;;;;;;50.77;30.73;;;3.30;99.90;;;;;;5070357;28;20967;-65
2021/01/10 05:03:16;;;;;;;39.30;27.70;;;3.30;99.90;;;;;;5071323;28;20437;-65
2021/01/10 05:05:42;;;;;;;43.73;29.80;;;3.30;99.90;;;;;;5072213;28;20428;-65
2021/01/10 05:08:12;;;;;;;50.13;32.03;;;3.30;99.90;;;;;;5070209;28;20433;-65
2021/01/10 05:10:41;;;;;;;43.13;27.30;;;3.30;99.90;;;;;;5071454;28;20182;-65
2021/01/10 05:13:07;;;;;;;44.27;26.60;;;3.30;99.90;;;;;;5067748;28;20512;-65
2021/01/10 05:15:33;;;;;;;47.70;29.90;;;3.30;99.90;;;;;;5067557;28;20540;-65
2021/01/10 05:18:00;;;;;;;43.10;27.70;;;3.30;99.90;;;;;;5067986;28;20491;-65
2021/01/10 05:20:33;;;;;;;47.93;28.77;;;3.30;99.90;;;;;;5067910;28;20538;-65
2021/01/10 05:22:59;;;;;;;43.73;26.07;;;3.30;99.90;;;;;;5068006;28;20503;-65
2021/01/10 05:25:29;;;;;;;41.87;28.33;;;3.30;99.90;;;;;;5065811;28;20446;-65
2021/01/10 05:27:57;;;;;;;46.03;31.03;;;3.30;99.90;;;;;;5063258;28;20430;-65
2021/01/10 05:30:33;;;;;;;45.23;28.53;;;3.30;99.90;;;;;;5065688;28;20964;-65
2021/01/10 05:33:04;;;;;;;49.97;29.10;;;3.30;99.90;;;;;;5066040;28;20468;-65
2021/01/10 05:35:47;;;;;;;49.20;28.40;;;3.30;99.90;;;;;;5063207;28;20469;-65
2021/01/10 05:38:32;;;;;;;47.10;29.50;;;3.30;99.90;;;;;;5069660;28;20433;-65
2021/01/10 05:41:00;;;;;;;42.63;28.13;;;3.30;99.90;;;;;;5068708;28;20765;-65
2021/01/10 05:43:26;;;;;;;43.70;27.17;;;3.30;99.90;;;;;;5066426;28;20521;-65
2021/01/10 05:45:53;;;;;;;43.90;28.23;;;3.20;99.90;;;;;;5066659;28;20434;-65
2021/01/10 05:48:19;;;;;;;47.73;28.37;;;3.30;99.90;;;;;;5066870;28;20426;-65
2021/01/10 05:50:50;;;;;;;46.83;29.70;;;3.30;99.90;;;;;;5064078;28;20445;-65
2021/01/10 05:53:20;;;;;;;42.40;27.70;;;3.30;99.90;;;;;;5067591;28;20438;-65
2021/01/10 05:56:03;;;;;;;45.30;29.50;;;3.30;99.90;;;;;;5057551;28;20442;-65
2021/01/10 05:58:30;;;;;;;45.73;27.97;;;3.20;99.90;;;;;;5068432;28;20433;-65
2021/01/10 06:00:58;;;;;;;47.47;27.97;;;3.30;99.90;;;;;;5066680;28;20440;-65
2021/01/10 06:03:26;;;;;;;44.40;26.03;;;3.30;99.90;;;;;;5066165;28;20442;-65
2021/01/10 06:06:00;;;;;;;37.87;28.47;;;3.20;99.90;;;;;;5049736;28;20448;-65
2021/01/10 06:08:33;;;;;;;37.97;26.57;;;3.20;99.90;;;;;;5066460;28;20445;-65
2021/01/10 06:11:19;;;;;;;45.60;27.73;;;3.20;99.90;;;;;;5064986;28;20438;-65
2021/01/10 06:13:56;;;;;;;39.13;24.37;;;3.20;99.90;;;;;;5066799;28;20462;-65
2021/01/10 06:16:27;;;;;;;35.37;22.80;;;3.20;99.90;;;;;;5064551;28;20438;-65
2021/01/10 06:18:55;;;;;;;39.57;25.97;;;3.10;99.90;;;;;;5068153;28;20452;-65
2021/01/10 06:21:23;;;;;;;34.20;24.13;;;3.10;99.90;;;;;;5067340;28;20433;-65
2021/01/10 06:23:52;;;;;;;37.70;23.33;;;3.10;99.90;;;;;;5041466;28;20953;-65
2021/01/10 06:26:22;;;;;;;35.83;23.77;;;3.10;99.90;;;;;;5064169;28;20469;-65
2021/01/10 06:28:52;;;;;;;35.30;24.57;;;3.00;99.90;;;;;;5061139;28;20437;-65
2021/01/10 06:31:27;;;;;;;39.33;24.90;;;3.00;99.90;;;;;;5068515;28;20499;-65
2021/01/10 06:34:07;;;;;;;36.17;22.30;;;3.10;99.90;;;;;;5062537;28;20461;-65
2021/01/10 06:36:35;;;;;;;46.10;26.30;;;3.00;99.90;;;;;;5063564;28;20464;-65
2021/01/10 06:39:10;;;;;;;32.87;22.73;;;3.00;99.90;;;;;;5063123;28;20526;-65
2021/01/10 06:41:35;;;;;;;35.47;24.57;;;3.00;99.90;;;;;;5064113;28;20437;-65
2021/01/10 06:44:07;;;;;;;35.80;24.57;;;2.90;99.90;;;;;;5064141;28;20818;-65
2021/01/10 06:46:33;;;;;;;36.43;23.90;;;2.90;99.90;;;;;;5068818;28;20262;-65
2021/01/10 06:49:03;;;;;;;36.83;26.13;;;2.90;99.90;;;;;;5060858;28;21034;-65
2021/01/10 06:51:29;;;;;;;39.90;25.40;;;2.90;99.90;;;;;;5066378;28;20187;-65
2021/01/10 06:53:56;;;;;;;43.10;23.67;;;2.90;99.90;;;;;;5066846;28;20470;-66
2021/01/10 06:56:22;;;;;;;39.70;26.57;;;2.90;99.90;;;;;;5041038;28;20474;-65
2021/01/10 06:59:25;;;;;;;39.13;24.97;;;2.90;99.90;;;;;;5045687;28;20446;-64
2021/01/10 07:01:56;;;;;;;38.30;25.77;;;3.00;99.90;;;;;;5063128;28;21016;-65
2021/01/10 07:04:37;;;;;;;39.13;26.00;;;3.00;99.90;;;;;;5065072;28;20453;-64
2021/01/10 07:07:03;;;;;;;36.57;24.90;;;3.00;99.90;;;;;;5066519;28;20449;-65
2021/01/10 07:09:52;;;;;;;38.47;25.80;;;3.00;99.90;;;;;;5062934;28;20484;-65
2021/01/10 07:12:21;;;;;;;41.00;25.13;;;3.00;99.90;;;;;;5064480;28;20851;-65
2021/01/10 07:14:47;;;;;;;35.43;25.93;;;3.00;99.90;;;;;;5066819;28;20523;-65
2021/01/10 07:17:14;;;;;;;41.50;27.60;;;3.00;99.90;;;;;;5062690;28;20481;-65
2021/01/10 07:19:42;;;;;;;34.50;25.80;;;3.00;99.90;;;;;;5067849;28;20223;-65
2021/01/10 07:22:30;;;;;;;35.93;24.30;;;3.00;99.90;;;;;;5062070;28;20441;-65
2021/01/10 07:24:56;;;;;;;37.13;25.67;;;3.00;99.90;;;;;;5039686;28;20450;-65
2021/01/10 07:27:35;;;;;;;39.70;28.40;;;3.00;99.90;;;;;;5061573;28;20521;-65
2021/01/10 07:30:21;;;;;;;36.00;24.70;;;3.00;99.90;;;;;;5063344;28;20483;-65
2021/01/10 07:32:47;;;;;;;36.63;25.67;;;3.00;99.90;;;;;;5066880;28;20445;-65
2021/01/10 07:35:12;;;;;;;34.27;24.00;;;3.10;99.90;;;;;;5061524;28;20803;-65
2021/01/10 07:37:39;;;;;;;40.90;26.80;;;3.10;99.90;;;;;;5062985;28;20260;-65
2021/01/10 07:40:09;;;;;;;37.80;27.27;;;3.10;99.90;;;;;;5066517;28;20215;-65
2021/01/10 07:42:39;;;;;;;45.47;27.23;;;3.10;99.90;;;;;;5066026;28;20430;-65
2021/01/10 07:45:20;;;;;;;37.00;24.13;;;3.10;99.90;;;;;;5064732;28;21391;-64
2021/01/10 07:47:49;;;;;;;36.00;26.87;;;3.10;99.90;;;;;;5063787;28;20445;-64
2021/01/10 07:50:15;;;;;;;33.00;22.80;;;3.10;99.90;;;;;;5041988;28;20450;-64
2021/01/10 07:52:48;;;;;;;35.60;24.83;;;3.10;99.90;;;;;;5065646;28;20442;-65
2021/01/10 07:55:23;;;;;;;33.73;25.83;;;3.00;99.90;;;;;;5064083;28;20219;-64
2021/01/10 07:57:51;;;;;;;31.60;23.63;;;3.00;99.90;;;;;;5063125;28;22888;-64
2021/01/10 08:00:34;;;;;;;34.70;25.27;;;3.10;99.90;;;;;;5063093;28;20940;-65
2021/01/10 08:03:07;;;;;;;34.60;24.20;;;3.10;99.90;;;;;;5063624;28;21213;-65
2021/01/10 08:05:40;;;;;;;30.57;21.47;;;3.10;99.90;;;;;;5066501;28;20446;-64
2021/01/10 08:08:12;;;;;;;30.60;22.10;;;3.10;99.90;;;;;;5065018;28;20487;-65
2021/01/10 08:10:42;;;;;;;26.43;20.67;;;3.10;99.90;;;;;;5060848;28;20521;-64
2021/01/10 08:13:29;;;;;;;26.30;20.00;;;3.10;99.90;;;;;;5066623;28;20437;-65
2021/01/10 08:15:57;;;;;;;24.40;17.70;;;3.10;99.90;;;;;;5062659;28;21096;-65
2021/01/10 08:18:24;;;;;;;33.43;21.93;;;3.10;99.90;;;;;;5061036;28;21045;-65
2021/01/10 08:20:51;;;;;;;32.37;22.37;;;3.10;99.90;;;;;;5062882;28;21139;-65
2021/01/10 08:23:17;;;;;;;30.13;20.57;;;3.10;99.90;;;;;;5064774;28;20805;-65
2021/01/10 08:25:43;;;;;;;27.93;21.30;;;3.10;99.90;;;;;;5033221;28;20438;-65
2021/01/10 08:28:11;;;;;;;33.13;22.23;;;3.10;99.90;;;;;;5060230;28;20430;-65
2021/01/10 08:30:37;;;;;;;32.80;23.70;;;3.20;99.90;;;;;;5065784;28;20434;-64
2021/01/10 08:33:03;;;;;;;31.60;22.83;;;3.20;99.90;;;;;;5063719;28;20795;-64
2021/01/10 08:35:28;;;;;;;30.13;22.20;;;3.20;99.90;;;;;;5064856;28;20449;-65
2021/01/10 08:37:54;;;;;;;28.10;20.87;;;3.30;99.90;;;;;;5058432;28;20244;-64
2021/01/10 08:40:19;;;;;;;30.93;21.30;;;3.30;99.90;;;;;;5064437;28;20207;-64
2021/01/10 08:42:45;;;;;;;30.10;22.13;;;3.30;99.90;;;;;;5062084;28;20200;-65
2021/01/10 08:45:21;;;;;;;27.80;21.20;;;3.30;99.90;;;;;;5061849;28;20192;-65
2021/01/10 08:47:48;;;;;;;30.47;20.80;;;3.30;99.90;;;;;;5066514;28;20184;-64
2021/01/10 08:50:15;;;;;;;26.90;20.57;;;3.40;99.90;;;;;;5067866;28;20528;-65
2021/01/10 08:52:59;;;;;;;30.67;21.57;;;3.40;99.90;;;;;;5069659;28;20437;-65
2021/01/10 08:55:30;;;;;;;26.60;19.03;;;3.40;99.90;;;;;;5065987;28;20462;-65
2021/01/10 08:57:56;;;;;;;23.33;17.93;;;3.40;99.90;;;;;;5064379;28;20873;-64
2021/01/10 09:00:22;;;;;;;24.93;19.20;;;3.40;99.90;;;;;;5067925;28;20466;-65
2021/01/10 09:02:47;;;;;;;27.30;18.50;;;3.50;99.90;;;;;;5067395;28;20191;-65
2021/01/10 09:05:25;;;;;;;23.20;17.27;;;3.60;99.90;;;;;;5066525;28;20179;-64
2021/01/10 09:07:56;;;;;;;24.50;18.47;;;3.60;99.90;;;;;;5069953;28;20196;-65
2021/01/10 09:10:24;;;;;;;26.53;19.27;;;3.70;99.90;;;;;;5067490;28;20437;-65
2021/01/10 09:12:55;;;;;;;30.77;21.87;;;3.70;99.90;;;;;;5067707;28;20449;-65
2021/01/10 09:15:24;;;;;;;27.00;18.57;;;3.80;99.90;;;;;;5064683;28;20887;-65
2021/01/10 09:17:55;;;;;;;23.40;18.10;;;3.80;99.90;;;;;;5068690;28;20540;-65
2021/01/10 09:20:30;;;;;;;29.07;18.60;;;3.80;99.90;;;;;;5061812;28;20488;-64
2021/01/10 09:23:05;;;;;;;24.47;19.63;;;3.90;99.90;;;;;;5069995;28;20441;-65
2021/01/10 09:25:32;;;;;;;26.70;20.77;;;3.90;99.90;;;;;;5069637;28;20452;-65
2021/01/10 09:28:09;;;;;;;26.50;19.50;;;4.00;99.90;;;;;;5066462;28;20434;-65
2021/01/10 09:30:44;;;;;;;24.23;19.83;;;4.10;99.90;;;;;;5066249;28;20501;-65
2021/01/10 09:33:10;;;;;;;21.37;17.67;;;4.10;99.90;;;;;;5065108;28;20532;-65
2021/01/10 09:35:46;;;;;;;23.03;18.73;;;4.10;99.90;;;;;;5069364;28;20492;-65
2021/01/10 09:38:20;;;;;;;20.60;17.20;;;4.10;99.90;;;;;;5065813;28;20426;-65
2021/01/10 09:41:08;;;;;;;24.63;17.77;;;4.20;99.90;;;;;;5070622;28;20797;-64
2021/01/10 09:43:48;;;;;;;24.53;17.97;;;4.20;99.90;;;;;;5064943;28;20434;-65
2021/01/10 09:46:31;;;;;;;22.47;17.40;;;4.30;99.90;;;;;;5069776;28;20548;-64
2021/01/10 09:49:04;;;;;;;26.33;17.90;;;4.30;99.90;;;;;;5064490;28;20433;-65
2021/01/10 09:51:39;;;;;;;20.70;17.20;;;4.40;99.90;;;;;;5069307;28;20437;-64
2021/01/10 09:54:20;;;;;;;22.13;18.50;;;4.40;99.90;;;;;;5065037;28;20572;-65
2021/01/10 09:57:08;;;;;;;23.20;18.23;;;4.40;99.90;;;;;;5063782;28;20445;-64
2021/01/10 09:59:35;;;;;;;24.70;15.93;;;4.30;99.90;;;;;;5036775;28;20885;-65
2021/01/10 10:02:19;;;;;;;23.93;17.70;;;4.40;99.90;;;;;;5067740;28;20429;-65
2021/01/10 10:04:47;;;;;;;21.30;16.97;;;4.50;99.90;;;;;;5058013;28;20503;-65
2021/01/10 10:07:27;;;;;;;22.83;16.27;;;4.50;99.90;;;;;;5067345;28;20441;-65
2021/01/10 10:09:54;;;;;;;21.97;17.30;;;4.60;99.90;;;;;;5066480;28;20483;-65
2021/01/10 10:12:21;;;;;;;24.67;17.17;;;4.50;99.90;;;;;;5063266;28;21299;-65
2021/01/10 10:14:59;;;;;;;24.70;19.50;;;4.50;99.90;;;;;;5043281;28;20470;-65
2021/01/10 10:17:30;;;;;;;26.83;18.20;;;4.60;99.90;;;;;;5065191;28;20437;-65
2021/01/10 10:19:57;;;;;;;23.03;17.03;;;4.60;99.90;;;;;;5068331;28;20957;-65
2021/01/10 10:22:26;;;;;;;22.17;17.27;;;4.60;99.90;;;;;;5064762;28;20422;-65
2021/01/10 10:24:53;;;;;;;25.70;20.00;;;4.60;99.90;;;;;;5064219;28;20489;-64
2021/01/10 10:27:19;;;;;;;29.53;19.40;;;4.60;99.90;;;;;;5062716;28;20433;-65
2021/01/10 10:29:45;;;;;;;24.53;17.90;;;4.70;99.90;;;;;;5064350;28;20454;-65
2021/01/10 10:32:11;;;;;;;24.37;18.70;;;4.70;99.90;;;;;;5068806;28;20191;-65
2021/01/10 10:34:37;;;;;;;25.93;18.77;;;4.70;99.90;;;;;;5064925;28;20472;-65
2021/01/10 10:37:04;;;;;;;24.30;19.90;;;4.70;99.90;;;;;;5065192;28;20584;-65
2021/01/10 10:39:29;;;;;;;30.40;22.50;;;4.80;99.90;;;;;;5068266;28;20204;-64
2021/01/10 10:41:55;;;;;;;28.63;21.40;;;4.80;99.90;;;;;;5066122;28;20536;-65
2021/01/10 10:44:21;;;;;;;28.13;21.87;;;4.90;99.90;;;;;;5065240;28;20184;-65
2021/01/10 10:46:46;;;;;;;32.70;23.97;;;4.90;99.90;;;;;;5067435;28;20198;-65
2021/01/10 10:49:12;;;;;;;29.63;21.57;;;5.00;99.90;;;;;;5060938;28;20668;-65
2021/01/10 10:51:37;;;;;;;31.13;23.77;;;5.00;99.90;;;;;;5068703;28;20176;-65
2021/01/10 10:54:03;;;;;;;30.13;22.50;;;5.00;99.90;;;;;;5066015;28;20313;-65
2021/01/10 10:56:46;;;;;;;27.87;22.77;;;5.00;99.90;;;;;;5066592;28;20196;-64
2021/01/10 10:59:12;;;;;;;31.47;21.83;;;5.00;99.90;;;;;;5063881;28;20190;-65
2021/01/10 11:01:42;;;;;;;33.00;24.80;;;5.00;99.90;;;;;;5064736;28;20954;-65
2021/01/10 11:04:07;;;;;;;30.60;22.23;;;5.00;99.90;;;;;;5064084;28;20618;-65
2021/01/10 11:06:34;;;;;;;30.87;23.93;;;5.00;99.90;;;;;;5067182;28;20430;-65
2021/01/10 11:09:00;;;;;;;33.20;23.57;;;5.00;99.90;;;;;;5065596;28;20215;-65
2021/01/10 11:11:43;;;;;;;27.63;22.57;;;4.90;99.90;;;;;;5064032;28;20434;-65
2021/01/10 11:14:10;;;;;;;28.00;23.00;;;5.00;99.90;;;;;;5064748;28;20515;-65
2021/01/10 11:16:37;;;;;;;28.60;22.80;;;5.00;99.90;;;;;;5063901;28;20490;-65
2021/01/10 11:19:05;;;;;;;29.70;23.63;;;5.00;99.90;;;;;;5065767;28;20491;-65
2021/01/10 11:21:38;;;;;;;28.87;23.40;;;4.90;99.90;;;;;;5062792;28;21645;-64
2021/01/10 11:24:05;;;;;;;32.60;23.73;;;4.90;99.90;;;;;;5047747;28;20433;-65
2021/01/10 11:26:32;;;;;;;31.40;23.27;;;4.80;99.90;;;;;;5064629;28;20476;-65
2021/01/10 11:28:57;;;;;;;32.50;25.83;;;4.70;99.90;;;;;;5066445;28;20807;-65
2021/01/10 11:31:29;;;;;;;35.90;23.13;;;4.70;99.90;;;;;;5065879;28;21013;-65
2021/01/10 11:33:55;;;;;;;36.30;24.50;;;4.70;99.90;;;;;;5063552;28;20244;-65
2021/01/10 11:36:21;;;;;;;30.17;24.37;;;4.70;99.90;;;;;;5063543;28;20442;-65
2021/01/10 11:38:48;;;;;;;32.23;24.70;;;4.70;99.90;;;;;;5065886;28;20457;-65
2021/01/10 11:41:14;;;;;;;36.13;25.47;;;4.80;99.90;;;;;;5062666;28;20217;-65
2021/01/10 11:43:40;;;;;;;32.90;25.20;;;4.80;99.90;;;;;;5066597;28;20537;-65
2021/01/10 11:46:06;;;;;;;34.83;26.00;;;4.80;99.90;;;;;;5063040;28;20188;-65
2021/01/10 11:48:36;;;;;;;30.60;24.07;;;4.90;99.90;;;;;;5061859;28;20275;-64
2021/01/10 11:51:03;;;;;;;35.70;24.87;;;4.80;99.90;;;;;;5066688;28;20445;-65
2021/01/10 11:53:29;;;;;;;32.97;24.50;;;4.90;99.90;;;;;;5062688;28;20934;-65
2021/01/10 11:55:55;;;;;;;33.80;25.00;;;4.80;99.90;;;;;;5066496;28;20507;-65
2021/01/10 11:58:20;;;;;;;33.10;25.50;;;4.80;99.90;;;;;;5066067;28;20184;-65
2021/01/10 12:00:50;;;;;;;38.03;25.63;;;4.90;99.90;;;;;;5035402;28;20189;-65
2021/01/10 12:03:16;;;;;;;37.00;25.97;;;5.00;99.90;;;;;;5056486;28;20192;-65
2021/01/10 12:05:42;;;;;;;36.63;25.83;;;4.90;99.90;;;;;;5065918;28;20441;-65
2021/01/10 12:08:07;;;;;;;32.90;24.77;;;4.90;99.90;;;;;;5066524;28;20472;-65
2021/01/10 12:10:34;;;;;;;36.80;25.07;;;5.00;99.90;;;;;;5065153;28;20187;-65
2021/01/10 12:13:02;;;;;;;35.93;27.10;;;5.00;99.90;;;;;;5067887;28;20188;-65
2021/01/10 12:15:28;;;;;;;35.17;24.53;;;5.10;99.90;;;;;;5065776;28;20548;-65
2021/01/10 12:17:54;;;;;;;37.20;27.67;;;5.10;99.90;;;;;;5062294;28;20453;-65
2021/01/10 12:20:19;;;;;;;36.00;25.60;;;5.10;99.90;;;;;;5066720;28;20930;-65
2021/01/10 12:22:45;;;;;;;39.60;28.63;;;5.10;99.90;;;;;;5060593;28;20198;-65
2021/01/10 12:25:11;;;;;;;36.90;27.90;;;5.10;99.90;;;;;;5067812;28;20226;-65
2021/01/10 12:27:36;;;;;;;37.77;27.50;;;5.20;99.90;;;;;;5066818;28;20495;-65
2021/01/10 12:30:04;;;;;;;39.30;28.20;;;5.20;99.90;;;;;;5070120;28;20438;-65
2021/01/10 12:32:35;;;;;;;40.43;30.00;;;5.20;99.90;;;;;;5068018;28;20329;-65
2021/01/10 12:35:02;;;;;;;38.70;27.97;;;5.20;99.90;;;;;;5068614;28;20958;-65
2021/01/10 12:37:27;;;;;;;43.43;30.20;;;5.30;99.90;;;;;;5066106;28;21529;-65
2021/01/10 12:39:53;;;;;;;41.40;30.13;;;5.20;99.90;;;;;;5069870;28;20461;-65
2021/01/10 12:42:18;;;;;;;48.00;32.87;;;5.30;99.90;;;;;;5064364;28;20200;-65
2021/01/10 12:44:44;;;;;;;48.77;31.57;;;5.30;99.90;;;;;;5066859;28;20291;-65